createdAt,value
2018-09-22T00:01:33.537Z,70.20
2018-09-22T00:04:01.891Z,70.20
2018-09-22T00:06:29.949Z,70.40
2018-09-22T00:08:58.030Z,70.00
2018-09-22T00:11:26.054Z,70.10
2018-09-22T00:16:22.321Z,70.30
2018-09-22T00:18:50.594Z,70.40
2018-09-22T00:21:19.136Z,70.40
2018-09-22T00:23:47.367Z,70.30
2018-09-22T00:26:15.417Z,70.00
2018-09-22T00:28:43.588Z,69.70
2018-09-22T00:31:11.836Z,69.90
2018-09-22T00:38:36.094Z,70.10
2018-09-22T00:41:04.186Z,70.30
2018-09-22T00:46:00.288Z,69.70
2018-09-22T00:48:28.382Z,69.90
2018-09-22T00:50:56.458Z,69.20
2018-09-22T00:55:52.568Z,69.80
2018-09-22T00:58:20.678Z,70.10
2018-09-22T01:00:48.850Z,70.20
2018-09-22T01:03:16.851Z,70.10
2018-09-22T01:05:45.194Z,70.10
2018-09-22T01:08:13.282Z,70.20
2018-09-22T01:10:42.510Z,70.70
2018-09-22T01:13:10.652Z,71.00
2018-09-22T01:18:08.939Z,70.80
2018-09-22T01:20:36.945Z,70.80
2018-09-22T01:23:05.248Z,71.10
2018-09-22T01:30:29.562Z,70.90
2018-09-22T01:32:57.680Z,70.70
2018-09-22T01:35:25.717Z,70.50
2018-09-22T01:42:49.719Z,70.40
2018-09-22T01:45:18.214Z,70.60
2018-09-22T01:47:46.425Z,70.60
2018-09-22T01:50:14.725Z,70.80
2018-09-22T01:52:42.887Z,70.80
2018-09-22T01:55:11.234Z,70.50
2018-09-22T02:00:07.342Z,70.90
2018-09-22T02:02:35.447Z,71.20
2018-09-22T02:05:03.565Z,71.10
2018-09-22T02:07:31.905Z,71.20
2018-09-22T02:09:59.895Z,71.40
2018-09-22T02:12:28.056Z,71.10
2018-09-22T02:17:24.299Z,71.40
2018-09-22T02:19:52.727Z,71.40
2018-09-22T02:22:22.214Z,71.40
2018-09-22T02:24:50.539Z,71.40
2018-09-22T02:27:18.549Z,71.60
2018-09-22T02:29:47.234Z,71.40
2018-09-22T02:32:15.370Z,71.40
2018-09-22T02:34:43.821Z,71.40
2018-09-22T02:37:11.923Z,71.60
2018-09-22T02:39:40.164Z,71.90
2018-09-22T02:42:08.244Z,72.10
2018-09-22T02:44:36.306Z,72.30
2018-09-22T02:47:04.381Z,72.70
2018-09-22T02:49:32.420Z,72.70
2018-09-22T02:52:00.556Z,72.80
2018-09-22T02:56:56.948Z,72.50
2018-09-22T02:59:25.117Z,72.70
2018-09-22T03:01:53.108Z,73.00
2018-09-22T03:04:21.230Z,73.20
2018-09-22T03:06:50.506Z,73.80
2018-09-22T03:09:19.186Z,73.60
2018-09-22T03:11:47.225Z,74.10
2018-09-22T03:16:43.365Z,73.90
2018-09-22T03:19:11.424Z,73.60
2018-09-22T03:21:39.509Z,74.50
2018-09-22T03:24:07.641Z,74.80
2018-09-22T03:26:35.660Z,74.60
2018-09-22T03:29:03.703Z,75.00
2018-09-22T03:33:59.861Z,74.90
2018-09-22T03:36:27.957Z,75.40
2018-09-22T03:38:56.016Z,75.40
2018-09-22T03:41:24.093Z,75.50
2018-09-22T03:43:52.039Z,75.40
2018-09-22T03:46:20.245Z,75.00
2018-09-22T03:48:48.439Z,74.50
2018-09-22T03:53:44.469Z,74.60
2018-09-22T03:56:12.614Z,74.70
2018-09-22T03:58:40.874Z,74.60
2018-09-22T04:06:06.032Z,75.50
2018-09-22T04:08:34.033Z,75.50
2018-09-22T04:11:02.151Z,75.60
2018-09-22T04:13:30.237Z,76.00
2018-09-22T04:18:27.399Z,76.20
2018-09-22T04:20:55.664Z,75.90
2018-09-22T04:23:23.733Z,75.40
2018-09-22T04:28:19.579Z,75.70
2018-09-22T04:30:47.680Z,75.90
2018-09-22T04:33:15.747Z,75.80
2018-09-22T04:40:39.964Z,74.40
2018-09-22T04:43:08.152Z,74.50
2018-09-22T04:53:00.958Z,73.30
2018-09-22T04:55:29.004Z,73.10
2018-09-22T04:57:57.175Z,73.20
2018-09-22T05:00:25.444Z,73.50
2018-09-22T05:02:53.500Z,73.50
2018-09-22T05:05:21.595Z,73.80
2018-09-22T05:07:49.629Z,73.80
2018-09-22T05:10:17.755Z,73.90
2018-09-22T05:15:13.708Z,73.40
2018-09-22T05:17:41.959Z,72.90
2018-09-22T05:20:10.071Z,73.00
2018-09-22T05:22:38.060Z,73.50
2018-09-22T05:27:34.647Z,73.50
2018-09-22T05:32:31.926Z,73.20
2018-09-22T05:37:28.104Z,72.30
2018-09-22T05:39:56.129Z,71.50
2018-09-22T05:44:52.235Z,71.10
2018-09-22T05:47:20.309Z,70.80
2018-09-22T05:49:48.447Z,70.40
2018-09-22T05:54:44.597Z,69.10
2018-09-22T05:57:12.637Z,68.70
2018-09-22T05:59:41.339Z,68.80
2018-09-22T06:02:09.373Z,68.20
2018-09-22T06:04:37.425Z,67.40
2018-09-22T06:07:05.573Z,65.80
2018-09-22T06:09:33.601Z,65.20
2018-09-22T06:16:57.810Z,63.70
2018-09-22T06:19:25.906Z,64.10
2018-09-22T06:21:53.957Z,63.10
2018-09-22T06:24:22.021Z,62.50
2018-09-22T06:26:50.090Z,60.60
2018-09-22T06:31:47.238Z,59.30
2018-09-22T06:34:15.238Z,60.60
2018-09-22T06:39:11.954Z,59.90
2018-09-22T06:41:40.036Z,59.50
2018-09-22T06:44:08.195Z,58.00
2018-09-22T06:49:04.317Z,55.50
2018-09-22T06:54:00.442Z,56.10
2018-09-22T06:56:28.497Z,56.20
2018-09-22T06:58:57.856Z,54.70
2018-09-22T07:03:53.750Z,53.00
2018-09-22T07:06:22.218Z,52.40
2018-09-22T07:11:19.450Z,51.00
2018-09-22T07:16:15.395Z,49.90
2018-09-22T07:21:11.497Z,48.80
2018-09-22T07:26:07.469Z,48.00
2018-09-22T07:28:35.971Z,47.40
2018-09-22T07:31:05.511Z,47.40
2018-09-22T07:33:33.944Z,46.60
2018-09-22T07:36:02.329Z,46.90
2018-09-22T07:38:30.387Z,46.80
2018-09-22T07:40:58.684Z,46.10
2018-09-22T07:45:54.878Z,46.80
2018-09-22T07:48:22.862Z,47.30
2018-09-22T07:50:51.017Z,46.90
2018-09-22T07:53:19.084Z,46.50
2018-09-22T07:55:47.180Z,45.90
2018-09-22T07:58:15.779Z,44.40
2018-09-22T08:00:43.856Z,43.30
2018-09-22T08:05:39.764Z,44.10
2018-09-22T08:08:08.072Z,44.50
2018-09-22T08:10:36.118Z,43.90
2018-09-22T08:13:04.341Z,44.70
2018-09-22T08:18:00.361Z,44.00
2018-09-22T08:22:56.873Z,43.50
2018-09-22T08:25:26.093Z,42.20
2018-09-22T08:27:54.156Z,41.70
2018-09-22T08:30:22.269Z,41.20
2018-09-22T08:35:18.445Z,40.00
2018-09-22T08:37:46.501Z,38.80
2018-09-22T08:40:14.541Z,38.90
2018-09-22T08:42:42.616Z,38.70
2018-09-22T08:47:38.752Z,37.80
2018-09-22T08:50:07.344Z,37.40
2018-09-22T08:52:35.547Z,37.00
2018-09-22T08:55:03.620Z,36.90
2018-09-22T08:57:31.709Z,36.50
2018-09-22T09:00:00.405Z,35.80
2018-09-22T09:04:56.472Z,36.10
2018-09-22T09:09:52.476Z,35.60
2018-09-22T09:14:48.511Z,34.60
2018-09-22T09:17:16.867Z,34.10
2018-09-22T09:19:44.957Z,34.00
2018-09-22T09:22:12.969Z,34.50
2018-09-22T09:24:41.032Z,34.60
2018-09-22T09:29:36.851Z,34.60
2018-09-22T09:32:04.953Z,34.60
2018-09-22T09:34:32.977Z,34.50
2018-09-22T09:37:01.125Z,33.60
2018-09-22T09:39:29.140Z,33.90
2018-09-22T09:41:57.322Z,33.60
2018-09-22T09:44:25.618Z,33.90
2018-09-22T09:49:21.748Z,33.60
2018-09-22T09:51:49.699Z,33.50
2018-09-22T09:54:17.946Z,32.60
2018-09-22T09:56:46.027Z,32.40
2018-09-22T10:04:10.186Z,34.30
2018-09-22T10:06:38.668Z,34.80
2018-09-22T10:09:08.035Z,34.00
2018-09-22T10:14:04.039Z,32.30
2018-09-22T10:16:32.108Z,32.20
2018-09-22T10:19:00.116Z,32.30
2018-09-22T10:21:28.495Z,32.40
2018-09-22T10:23:58.857Z,31.50
2018-09-22T10:28:54.964Z,31.80
2018-09-22T10:31:22.964Z,32.10
2018-09-22T10:36:19.112Z,31.10
2018-09-22T10:41:15.245Z,30.50
2018-09-22T10:43:43.288Z,30.60
2018-09-22T10:46:11.407Z,30.80
2018-09-22T10:48:39.446Z,30.70
2018-09-22T10:51:07.573Z,30.50
2018-09-22T10:53:35.596Z,30.90
2018-09-22T10:56:03.677Z,31.40
2018-09-22T10:58:31.715Z,31.00
2018-09-22T11:00:59.780Z,30.90
2018-09-22T11:03:28.011Z,31.70
2018-09-22T11:05:56.329Z,31.50
2018-09-22T11:08:24.501Z,31.70
2018-09-22T11:10:52.685Z,31.90
2018-09-22T11:13:20.828Z,31.50
2018-09-22T11:15:49.142Z,31.10
2018-09-22T11:18:17.237Z,31.00
2018-09-22T11:20:45.385Z,30.80
2018-09-22T11:23:13.664Z,31.40
2018-09-22T11:25:41.772Z,31.90
2018-09-22T11:28:09.806Z,32.40
2018-09-22T11:35:34.140Z,31.50
2018-09-22T11:38:02.494Z,30.90
2018-09-22T11:40:30.801Z,30.30
2018-09-22T11:42:58.875Z,29.90
2018-09-22T11:47:54.996Z,30.80
2018-09-22T11:50:23.107Z,31.10
2018-09-22T11:52:51.291Z,31.50
2018-09-22T11:57:47.326Z,32.00
2018-09-22T12:00:16.534Z,32.30
2018-09-22T12:05:16.132Z,32.90
2018-09-22T12:07:44.216Z,31.70
2018-09-22T12:10:12.263Z,30.40
2018-09-22T12:12:40.321Z,29.80
2018-09-22T12:15:08.417Z,29.80
2018-09-22T12:17:36.514Z,30.00
2018-09-22T12:22:33.538Z,30.60
2018-09-22T12:25:01.600Z,30.50
2018-09-22T12:27:30.961Z,30.50
2018-09-22T12:29:58.962Z,30.40
2018-09-22T12:32:27.068Z,30.50
2018-09-22T12:34:56.374Z,30.50
2018-09-22T12:39:52.421Z,30.30
2018-09-22T12:42:20.545Z,30.00
2018-09-22T12:47:16.714Z,30.10
2018-09-22T12:49:44.795Z,30.60
2018-09-22T12:52:13.298Z,30.70
2018-09-22T12:54:41.548Z,30.80
2018-09-22T12:57:09.601Z,30.30
2018-09-22T13:07:05.949Z,30.40
2018-09-22T13:09:34.233Z,30.40
2018-09-22T13:12:02.360Z,30.70
2018-09-22T13:14:30.384Z,31.30
2018-09-22T13:19:26.523Z,30.80
2018-09-22T13:24:22.757Z,31.00
2018-09-22T13:26:51.918Z,31.50
2018-09-22T13:34:16.270Z,32.10
2018-09-22T13:36:44.309Z,32.40
2018-09-22T13:44:09.537Z,32.20
2018-09-22T13:46:37.781Z,33.70
2018-09-22T13:49:06.081Z,33.10
2018-09-22T13:51:35.214Z,33.40
2018-09-22T13:56:34.986Z,31.80
2018-09-22T13:59:03.070Z,32.20
2018-09-22T14:01:31.175Z,32.70
2018-09-22T14:04:02.564Z,33.20
2018-09-22T14:06:30.657Z,33.20
2018-09-22T14:08:58.777Z,32.30
2018-09-22T14:11:26.792Z,33.00
2018-09-22T14:13:54.866Z,32.90
2018-09-22T14:21:19.155Z,32.50
2018-09-22T14:23:47.584Z,32.40
2018-09-22T14:26:15.818Z,31.70
2018-09-22T14:28:43.881Z,32.20
2018-09-22T14:33:40.021Z,33.10
2018-09-22T14:36:08.165Z,33.60
2018-09-22T14:38:36.151Z,34.30
2018-09-22T14:41:04.300Z,34.30
2018-09-22T14:43:32.399Z,33.60
2018-09-22T14:46:00.845Z,33.80
2018-09-22T14:50:57.532Z,33.80
2018-09-22T14:53:25.893Z,33.70
2018-09-22T14:55:53.896Z,33.70
2018-09-22T14:58:25.666Z,33.90
2018-09-22T15:00:53.789Z,35.80
2018-09-22T15:03:21.853Z,35.90
2018-09-22T15:05:49.865Z,36.30
2018-09-22T15:08:18.010Z,36.70
2018-09-22T15:10:46.145Z,37.10
2018-09-22T15:13:14.388Z,37.40
2018-09-22T15:18:11.343Z,38.10
2018-09-22T15:25:35.425Z,39.50
2018-09-22T15:28:04.015Z,39.80
2018-09-22T15:30:32.296Z,40.40
2018-09-22T15:33:00.522Z,40.80
2018-09-22T15:35:28.581Z,40.60
2018-09-22T15:37:56.669Z,40.50
2018-09-22T15:40:24.785Z,40.50
2018-09-22T15:42:53.109Z,40.90
2018-09-22T15:45:21.178Z,41.30
2018-09-22T15:47:49.299Z,41.60
2018-09-22T15:50:17.329Z,41.80
2018-09-22T15:52:45.387Z,41.80
2018-09-22T15:55:13.466Z,42.00
2018-09-22T15:57:41.503Z,42.40
2018-09-22T16:00:09.651Z,42.70
2018-09-22T16:05:07.910Z,43.20
2018-09-22T16:07:35.935Z,43.40
2018-09-22T16:10:04.160Z,43.70
2018-09-22T16:12:32.493Z,43.80
2018-09-22T16:15:00.781Z,44.10
2018-09-22T16:17:28.871Z,44.50
2018-09-22T16:24:53.049Z,46.60
2018-09-22T16:27:21.187Z,47.10
2018-09-22T16:29:49.333Z,47.60
2018-09-22T16:32:17.662Z,48.30
2018-09-22T16:34:45.688Z,48.40
2018-09-22T16:37:14.977Z,49.00
2018-09-22T16:42:11.100Z,49.70
2018-09-22T16:47:07.338Z,50.10
2018-09-22T16:49:35.659Z,50.60
2018-09-22T16:52:03.743Z,51.10
2018-09-22T16:56:59.855Z,52.00
2018-09-22T16:59:29.230Z,51.80
2018-09-22T17:01:57.544Z,51.60
2018-09-22T17:04:25.911Z,51.70
2018-09-22T17:09:22.121Z,51.90
2018-09-22T17:14:18.249Z,52.10
2018-09-22T17:16:46.323Z,52.20
2018-09-22T17:21:43.048Z,52.60
2018-09-22T17:24:11.154Z,52.70
2018-09-22T17:26:39.445Z,52.10
2018-09-22T17:29:08.430Z,52.30
2018-09-22T17:31:38.773Z,52.70
2018-09-22T17:34:07.133Z,52.60
2018-09-22T17:36:35.460Z,52.80
2018-09-22T17:39:05.283Z,53.10
2018-09-22T17:41:33.397Z,53.50
2018-09-22T17:44:01.958Z,53.40
2018-09-22T17:46:30.223Z,53.50
2018-09-22T17:48:58.263Z,53.80
2018-09-22T17:51:26.319Z,54.30
2018-09-22T17:56:22.435Z,54.50
2018-09-22T18:03:46.660Z,55.10
2018-09-22T18:06:14.732Z,55.00
2018-09-22T18:08:42.863Z,54.90
2018-09-22T18:11:10.868Z,55.30
2018-09-22T18:13:38.977Z,55.10
2018-09-22T18:18:35.092Z,55.40
2018-09-22T18:21:03.198Z,55.50
2018-09-22T18:23:31.295Z,55.60
2018-09-22T18:28:27.389Z,55.70
2018-09-22T18:30:55.456Z,55.90
2018-09-22T18:33:23.621Z,56.20
2018-09-22T18:35:52.227Z,56.20
2018-09-22T18:38:20.276Z,56.00
2018-09-22T18:43:16.424Z,56.40
2018-09-22T18:45:44.545Z,56.40
2018-09-22T18:53:08.729Z,57.10
2018-09-22T18:58:05.002Z,58.20
2018-09-22T19:03:02.239Z,58.50
2018-09-22T19:05:30.281Z,59.00
2018-09-22T19:07:58.422Z,59.30
2018-09-22T19:10:27.664Z,59.50
2018-09-22T19:12:56.709Z,59.70
2018-09-22T19:15:31.457Z,59.60
2018-09-22T19:18:06.815Z,59.90
2018-09-22T19:22:41.980Z,59.80
2018-09-22T19:25:13.263Z,60.10
2018-09-22T19:31:18.057Z,60.60
2018-09-22T19:36:32.302Z,60.90
2018-09-22T19:39:04.735Z,61.30
2018-09-22T19:44:45.439Z,61.50
2018-09-22T19:47:17.041Z,61.40
2018-09-22T19:49:51.009Z,61.60
2018-09-22T19:52:24.425Z,61.60
2018-09-22T19:54:53.661Z,62.90
2018-09-22T19:57:21.979Z,62.10
2018-09-22T19:59:49.961Z,62.30
2018-09-22T20:04:46.142Z,62.90
2018-09-22T20:07:14.253Z,63.70
2018-09-22T20:12:10.411Z,63.90
2018-09-22T20:14:38.449Z,64.00
2018-09-22T20:17:06.512Z,64.10
2018-09-22T20:22:02.829Z,63.90
2018-09-22T20:24:31.155Z,63.80
2018-09-22T20:29:27.175Z,64.00
2018-09-22T20:31:55.289Z,64.20
2018-09-22T20:36:51.372Z,64.80
2018-09-22T20:39:19.519Z,64.70
2018-09-22T20:41:47.523Z,64.50
2018-09-22T20:44:15.588Z,64.30
2018-09-22T20:46:43.647Z,64.40
2018-09-22T20:49:11.769Z,64.40
2018-09-22T20:51:39.821Z,64.40
2018-09-22T20:54:07.915Z,65.50
2018-09-22T20:56:36.143Z,65.90
2018-09-22T20:59:04.398Z,66.40
2018-09-22T21:01:32.451Z,66.90
2018-09-22T21:04:00.458Z,67.00
2018-09-22T21:06:28.556Z,66.90
2018-09-22T21:08:56.600Z,66.60
2018-09-22T21:11:25.003Z,66.70
2018-09-22T21:16:21.189Z,66.80
2018-09-22T21:18:49.208Z,66.80
2018-09-22T21:21:17.333Z,66.90
2018-09-22T21:26:13.537Z,67.40
2018-09-22T21:28:41.854Z,67.50
2018-09-22T21:33:37.958Z,68.00
2018-09-22T21:36:06.114Z,68.60
2018-09-22T21:38:34.498Z,69.00
2018-09-22T21:41:02.787Z,69.30
2018-09-22T21:43:30.868Z,69.80
2018-09-22T21:45:58.917Z,70.10
2018-09-22T21:48:27.006Z,69.80
2018-09-22T21:50:55.070Z,69.40
2018-09-22T21:56:02.740Z,69.50
2018-09-22T22:03:27.784Z,68.80
2018-09-22T22:05:56.137Z,69.30
2018-09-22T22:10:52.403Z,69.50
2018-09-22T22:13:20.718Z,69.90
2018-09-22T22:18:16.931Z,70.40
2018-09-22T22:23:13.217Z,70.80
2018-09-22T22:28:09.879Z,70.70
2018-09-22T22:30:38.101Z,70.70
2018-09-22T22:33:06.537Z,69.80
2018-09-22T22:35:34.870Z,69.80
2018-09-22T22:40:33.247Z,71.90
2018-09-22T22:43:02.394Z,71.80
2018-09-22T22:47:58.869Z,71.00
2018-09-22T22:50:26.960Z,71.20
2018-09-22T22:52:55.322Z,71.60
2018-09-22T22:57:52.518Z,71.90
2018-09-22T23:00:20.712Z,72.90
2018-09-22T23:02:49.264Z,74.60
2018-09-22T23:05:17.542Z,75.60
2018-09-22T23:07:45.847Z,75.60
2018-09-22T23:10:14.450Z,77.00
2018-09-22T23:12:42.615Z,76.80
2018-09-22T23:15:10.680Z,76.40
2018-09-22T23:20:07.248Z,76.20
2018-09-22T23:25:03.328Z,77.00
2018-09-22T23:27:31.411Z,77.70
2018-09-22T23:29:59.422Z,78.10
2018-09-22T23:34:55.524Z,79.10
2018-09-22T23:37:23.702Z,79.30
2018-09-22T23:39:52.036Z,80.70
2018-09-22T23:44:50.393Z,81.60
2018-09-22T23:47:18.658Z,81.70
2018-09-22T23:49:46.773Z,81.70
2018-09-22T23:52:14.832Z,81.70
2018-09-22T23:54:42.896Z,82.20
2018-09-22T23:57:10.972Z,82.40
